Terminal Aerodrome Forecast
Issued by NWS

Home | Current Version | Previous Version | Text Only | Print | Product List | Glossary Off
Versions: 1 2 3 4 5 6 7 8 9 10 11 12 13 14 15 16 17

096
FTUS43 KGRB 220520
TAFAUW
TAF
KAUW 220520Z 2206/2306 17006KT P6SM BKN040 WS020/26035KT
      TEMPO 2206/2209 2SM TSRA BKN022CB
     FM220900 20005KT P6SM -SHRA BKN040 WS020/29030KT
     FM221200 26005KT P6SM BKN040
     FM221800 29006KT P6SM BKN050 PROB30 2218/2222 1SM TSRA BKN022CB
     FM230000 VRB03KT P6SM SCT040 BKN080=

USA.gov is the U.S. government's official web portal to all federal, state and local government web resources and services.